sensor_id;sensor_type;location;lat;lon;timestamp;pressure;altitude;pressure_sealevel;temperature;humidity
49367;BME280;35245;52.026;8.540;2024-02-21T00:00:31;51377.44;;;-145.42;100.00
49367;BME280;35245;52.026;8.540;2024-02-21T00:02:58;51668.84;;;-145.42;100.00
49367;BME280;35245;52.026;8.540;2024-02-21T00:05:28;51839.34;;;-145.42;100.00
49367;BME280;35245;52.026;8.540;2024-02-21T00:07:58;51797.72;;;-145.42;100.00
49367;BME280;35245;52.026;8.540;2024-02-21T00:10:25;51803.66;;;-145.42;100.00
49367;BME280;35245;52.026;8.540;2024-02-21T00:12:53;51851.25;;;-145.42;100.00
49367;BME280;35245;52.026;8.540;2024-02-21T00:15:20;51502.31;;;-145.42;100.00
49367;BME280;35245;52.026;8.540;2024-02-21T00:17:48;51805.66;;;-145.42;100.00
49367;BME280;35245;52.026;8.540;2024-02-21T00:20:15;51873.06;;;-145.42;100.00
49367;BME280;35245;52.026;8.540;2024-02-21T00:22:43;51863.16;;;-145.42;100.00
49367;BME280;35245;52.026;8.540;2024-02-21T00:25:12;51886.94;;;-145.42;100.00
49367;BME280;35245;52.026;8.540;2024-02-21T00:27:39;51932.53;;;-145.42;100.00
49367;BME280;35245;52.026;8.540;2024-02-21T00:30:08;51906.75;;;-145.42;100.00
49367;BME280;35245;52.026;8.540;2024-02-21T00:32:35;51940.47;;;-145.42;100.00
49367;BME280;35245;52.026;8.540;2024-02-21T00:35:03;51813.56;;;-145.42;100.00
49367;BME280;35245;52.026;8.540;2024-02-21T00:37:31;51795.72;;;-145.42;100.00
49367;BME280;35245;52.026;8.540;2024-02-21T00:39:58;51771.94;;;-145.42;100.00
49367;BME280;35245;52.026;8.540;2024-02-21T00:42:27;51873.06;;;-145.42;100.00
49367;BME280;35245;52.026;8.540;2024-02-21T00:44:54;51958.31;;;-145.42;100.00
49367;BME280;35245;52.026;8.540;2024-02-21T00:47:21;51900.81;;;-145.42;100.00
49367;BME280;35245;52.026;8.540;2024-02-21T00:49:48;51918.66;;;-145.42;100.00
49367;BME280;35245;52.026;8.540;2024-02-21T00:52:15;51900.81;;;-145.42;100.00
49367;BME280;35245;52.026;8.540;2024-02-21T00:54:42;51879.00;;;-145.42;100.00
49367;BME280;35245;52.026;8.540;2024-02-21T00:57:09;51882.97;;;-145.42;100.00
49367;BME280;35245;52.026;8.540;2024-02-21T00:59:38;51908.75;;;-145.42;100.00
49367;BME280;35245;52.026;8.540;2024-02-21T01:02:05;51867.09;;;-145.42;100.00
49367;BME280;35245;52.026;8.540;2024-02-21T01:04:32;51888.91;;;-145.42;100.00
49367;BME280;35245;52.026;8.540;2024-02-21T01:06:59;51920.63;;;-145.42;100.00
49367;BME280;35245;52.026;8.540;2024-02-21T01:09:26;51896.84;;;-145.42;100.00
49367;BME280;35245;52.026;8.540;2024-02-21T01:11:53;51875.03;;;-145.42;100.00
49367;BME280;35245;52.026;8.540;2024-02-21T01:14:21;51902.78;;;-145.42;100.00
49367;BME280;35245;52.026;8.540;2024-02-21T01:16:49;51863.16;;;-145.42;100.00
49367;BME280;35245;52.026;8.540;2024-02-21T01:19:17;51884.94;;;-145.42;100.00
49367;BME280;35245;52.026;8.540;2024-02-21T01:21:44;51879.00;;;-145.42;100.00
49367;BME280;35245;52.026;8.540;2024-02-21T01:24:11;51835.38;;;-145.42;100.00
49367;BME280;35245;52.026;8.540;2024-02-21T01:26:38;51892.88;;;-145.42;100.00
49367;BME280;35245;52.026;8.540;2024-02-21T01:29:05;51892.88;;;-145.42;100.00
49367;BME280;35245;52.026;8.540;2024-02-21T01:31:31;51930.56;;;-145.42;100.00
49367;BME280;35245;52.026;8.540;2024-02-21T01:34:00;51910.72;;;-145.42;100.00
49367;BME280;35245;52.026;8.540;2024-02-21T01:36:27;51896.84;;;-145.42;100.00
49367;BME280;35245;52.026;8.540;2024-02-21T01:38:54;51882.97;;;-145.42;100.00
49367;BME280;35245;52.026;8.540;2024-02-21T01:41:21;51930.56;;;-145.42;100.00
49367;BME280;35245;52.026;8.540;2024-02-21T01:43:48;51926.59;;;-145.42;100.00
49367;BME280;35245;52.026;8.540;2024-02-21T01:46:15;51875.03;;;-145.42;100.00
49367;BME280;35245;52.026;8.540;2024-02-21T01:48:43;51892.88;;;-145.42;100.00
49367;BME280;35245;52.026;8.540;2024-02-21T01:51:13;51863.16;;;-145.42;100.00
49367;BME280;35245;52.026;8.540;2024-02-21T01:53:43;51882.97;;;-145.42;100.00
49367;BME280;35245;52.026;8.540;2024-02-21T01:56:12;51934.53;;;-145.42;100.00
49367;BME280;35245;52.026;8.540;2024-02-21T01:58:42;51890.91;;;-145.42;100.00
49367;BME280;35245;52.026;8.540;2024-02-21T02:01:10;51910.72;;;-145.42;100.00
49367;BME280;35245;52.026;8.540;2024-02-21T02:03:37;51892.88;;;-145.42;100.00
49367;BME280;35245;52.026;8.540;2024-02-21T02:06:06;51841.34;;;-145.42;100.00
49367;BME280;35245;52.026;8.540;2024-02-21T02:08:34;51924.59;;;-145.42;100.00
49367;BME280;35245;52.026;8.540;2024-02-21T02:11:02;51906.75;;;-145.42;100.00
49367;BME280;35245;52.026;8.540;2024-02-21T02:13:30;51916.69;;;-145.42;100.00
49367;BME280;35245;52.026;8.540;2024-02-21T02:15:57;51912.72;;;-145.42;100.00
49367;BME280;35245;52.026;8.540;2024-02-21T02:18:24;51875.03;;;-145.42;100.00
49367;BME280;35245;52.026;8.540;2024-02-21T02:20:51;51859.19;;;-145.42;100.00
49367;BME280;35245;52.026;8.540;2024-02-21T02:23:24;51801.69;;;-145.42;100.00
49367;BME280;35245;52.026;8.540;2024-02-21T02:25:51;51912.72;;;-145.42;100.00
49367;BME280;35245;52.026;8.540;2024-02-21T02:28:19;51902.78;;;-145.42;100.00
49367;BME280;35245;52.026;8.540;2024-02-21T02:30:47;51863.16;;;-145.42;100.00
49367;BME280;35245;52.026;8.540;2024-02-21T02:33:14;51916.69;;;-145.42;100.00
49367;BME280;35245;52.026;8.540;2024-02-21T02:35:43;51914.69;;;-145.42;100.00
49367;BME280;35245;52.026;8.540;2024-02-21T02:38:10;51920.63;;;-145.42;100.00
49367;BME280;35245;52.026;8.540;2024-02-21T02:40:40;51928.56;;;-145.42;100.00
49367;BME280;35245;52.026;8.540;2024-02-21T02:43:08;51914.69;;;-145.42;100.00
49367;BME280;35245;52.026;8.540;2024-02-21T02:45:35;51821.50;;;-145.42;100.00
49367;BME280;35245;52.026;8.540;2024-02-21T02:48:03;51851.25;;;-145.42;100.00
49367;BME280;35245;52.026;8.540;2024-02-21T02:50:30;51888.91;;;-145.42;100.00
49367;BME280;35245;52.026;8.540;2024-02-21T02:52:58;51795.72;;;-145.42;100.00
49367;BME280;35245;52.026;8.540;2024-02-21T02:55:25;51706.53;;;-145.42;100.00
49367;BME280;35245;52.026;8.540;2024-02-21T02:57:54;51633.16;;;-145.42;100.00
49367;BME280;35245;52.026;8.540;2024-02-21T03:00:22;51698.59;;;-145.42;100.00
49367;BME280;35245;52.026;8.540;2024-02-21T03:02:50;51799.69;;;-145.42;100.00
49367;BME280;35245;52.026;8.540;2024-02-21T03:05:19;51863.16;;;-145.42;100.00
49367;BME280;35245;52.026;8.540;2024-02-21T03:07:47;51871.06;;;-145.42;100.00
49367;BME280;35245;52.026;8.540;2024-02-21T03:10:15;51625.22;;;-145.42;100.00
49367;BME280;35245;52.026;8.540;2024-02-21T03:12:43;51688.69;;;-145.42;100.00
49367;BME280;35245;52.026;8.540;2024-02-21T03:15:12;51861.16;;;-145.42;100.00
49367;BME280;35245;52.026;8.540;2024-02-21T03:17:40;51914.69;;;-145.42;100.00
49367;BME280;35245;52.026;8.540;2024-02-21T03:20:08;51920.63;;;-145.42;100.00
49367;BME280;35245;52.026;8.540;2024-02-21T03:22:35;51894.88;;;-145.42;100.00
49367;BME280;35245;52.026;8.540;2024-02-21T03:25:04;51855.22;;;-145.42;100.00
49367;BME280;35245;52.026;8.540;2024-02-21T03:27:32;51894.88;;;-145.42;100.00
49367;BME280;35245;52.026;8.540;2024-02-21T03:29:59;51855.22;;;-145.42;100.00
49367;BME280;35245;52.026;8.540;2024-02-21T03:32:27;51884.94;;;-145.42;100.00
49367;BME280;35245;52.026;8.540;2024-02-21T03:34:55;51896.84;;;-145.42;100.00
49367;BME280;35245;52.026;8.540;2024-02-21T03:37:22;51892.88;;;-145.42;100.00
49367;BME280;35245;52.026;8.540;2024-02-21T03:39:49;51912.72;;;-145.42;100.00
49367;BME280;35245;52.026;8.540;2024-02-21T03:42:16;51902.78;;;-145.42;100.00
49367;BME280;35245;52.026;8.540;2024-02-21T03:44:43;51920.63;;;-145.42;100.00
49367;BME280;35245;52.026;8.540;2024-02-21T03:47:10;51888.91;;;-145.42;100.00
49367;BME280;35245;52.026;8.540;2024-02-21T03:49:39;51894.88;;;-145.42;100.00
49367;BME280;35245;52.026;8.540;2024-02-21T03:52:06;51904.78;;;-145.42;100.00
49367;BME280;35245;52.026;8.540;2024-02-21T03:54:34;51839.34;;;-145.42;100.00
49367;BME280;35245;52.026;8.540;2024-02-21T03:57:01;51916.69;;;-145.42;100.00
49367;BME280;35245;52.026;8.540;2024-02-21T03:59:28;51924.59;;;-145.42;100.00
49367;BME280;35245;52.026;8.540;2024-02-21T04:01:55;51954.34;;;-145.42;100.00
49367;BME280;35245;52.026;8.540;2024-02-21T04:04:22;51934.53;;;-145.42;100.00
49367;BME280;35245;52.026;8.540;2024-02-21T04:06:51;51956.31;;;-145.42;100.00
49367;BME280;35245;52.026;8.540;2024-02-21T04:09:18;51999.94;;;-145.42;100.00
49367;BME280;35245;52.026;8.540;2024-02-21T04:11:46;51980.13;;;-145.42;100.00
49367;BME280;35245;52.026;8.540;2024-02-21T04:14:13;51988.06;;;-145.42;100.00
49367;BME280;35245;52.026;8.540;2024-02-21T04:16:40;51926.59;;;-145.42;100.00
49367;BME280;35245;52.026;8.540;2024-02-21T04:19:07;52003.91;;;-145.42;100.00
49367;BME280;35245;52.026;8.540;2024-02-21T04:21:35;52045.56;;;-145.42;100.00
49367;BME280;35245;52.026;8.540;2024-02-21T04:24:04;52065.38;;;-145.42;100.00
49367;BME280;35245;52.026;8.540;2024-02-21T04:26:31;52079.25;;;-145.42;100.00
49367;BME280;35245;52.026;8.540;2024-02-21T04:28:58;52089.16;;;-145.42;100.00
49367;BME280;35245;52.026;8.540;2024-02-21T04:31:25;52103.06;;;-145.42;100.00
49367;BME280;35245;52.026;8.540;2024-02-21T04:33:52;52152.63;;;-145.42;100.00
49367;BME280;35245;52.026;8.540;2024-02-21T04:36:20;52124.84;;;-145.42;100.00
49367;BME280;35245;52.026;8.540;2024-02-21T04:38:47;52212.09;;;-145.42;100.00
49367;BME280;35245;52.026;8.540;2024-02-21T04:41:16;52299.34;;;-145.42;100.00
49367;BME280;35245;52.026;8.540;2024-02-21T04:43:43;52271.59;;;-145.42;100.00
49367;BME280;35245;52.026;8.540;2024-02-21T04:46:10;52321.16;;;-145.42;100.00
49367;BME280;35245;52.026;8.540;2024-02-21T04:48:37;52380.66;;;-145.42;100.00
49367;BME280;35245;52.026;8.540;2024-02-21T04:51:04;52428.22;;;-145.42;100.00
49367;BME280;35245;52.026;8.540;2024-02-21T04:53:31;52295.38;;;-145.42;100.00
49367;BME280;35245;52.026;8.540;2024-02-21T04:55:59;52331.06;;;-145.42;100.00
49367;BME280;35245;52.026;8.540;2024-02-21T04:58:27;52525.41;;;-145.42;100.00
49367;BME280;35245;52.026;8.540;2024-02-21T05:00:54;52511.50;;;-145.42;100.00
49367;BME280;35245;52.026;8.540;2024-02-21T05:03:21;52574.97;;;-145.42;100.00
49367;BME280;35245;52.026;8.540;2024-02-21T05:05:48;52592.81;;;-145.42;100.00
49367;BME280;35245;52.026;8.540;2024-02-21T05:08:16;52606.69;;;-145.42;100.00
49367;BME280;35245;52.026;8.540;2024-02-21T05:10:43;52604.72;;;-145.42;100.00
49367;BME280;35245;52.026;8.540;2024-02-21T05:13:10;52606.69;;;-145.42;100.00
49367;BME280;35245;52.026;8.540;2024-02-21T05:15:39;52454.00;;;-145.42;100.00
49367;BME280;35245;52.026;8.540;2024-02-21T05:18:06;52172.44;;;-145.42;100.00
49367;BME280;35245;52.026;8.540;2024-02-21T05:20:33;52678.09;;;-145.42;100.00
49367;BME280;35245;52.026;8.540;2024-02-21T05:23:00;52644.38;;;-145.42;100.00
49367;BME280;35245;52.026;8.540;2024-02-21T05:25:28;52670.16;;;-145.42;100.00
49367;BME280;35245;52.026;8.540;2024-02-21T05:27:55;52747.50;;;-145.42;100.00
49367;BME280;35245;52.026;8.540;2024-02-21T05:30:27;52787.16;;;-145.42;100.00
49367;BME280;35245;52.026;8.540;2024-02-21T05:32:56;52791.13;;;-145.42;100.00
49367;BME280;35245;52.026;8.540;2024-02-21T05:35:26;52773.28;;;-145.42;100.00
49367;BME280;35245;52.026;8.540;2024-02-21T05:37:54;52584.88;;;-145.42;100.00
49367;BME280;35245;52.026;8.540;2024-02-21T05:40:21;52442.13;;;-145.42;100.00
49367;BME280;35245;52.026;8.540;2024-02-21T05:42:48;52648.34;;;-145.42;100.00
49367;BME280;35245;52.026;8.540;2024-02-21T05:45:17;52005.91;;;-145.42;100.00
49367;BME280;35245;52.026;8.540;2024-02-21T05:47:44;51890.91;;;-145.42;100.00
49367;BME280;35245;52.026;8.540;2024-02-21T05:50:12;51841.34;;;-145.42;100.00
49367;BME280;35245;52.026;8.540;2024-02-21T05:52:40;52331.06;;;-145.42;100.00
49367;BME280;35245;52.026;8.540;2024-02-21T05:55:07;52019.78;;;-145.42;100.00
49367;BME280;35245;52.026;8.540;2024-02-21T05:57:35;52424.25;;;-145.42;100.00
49367;BME280;35245;52.026;8.540;2024-02-21T06:00:05;52707.84;;;-145.42;100.00
49367;BME280;35245;52.026;8.540;2024-02-21T06:02:32;52814.91;;;-145.42;100.00
49367;BME280;35245;52.026;8.540;2024-02-21T06:04:59;52783.19;;;-145.42;100.00
49367;BME280;35245;52.026;8.540;2024-02-21T06:07:28;52688.00;;;-145.42;100.00
49367;BME280;35245;52.026;8.540;2024-02-21T06:09:55;52610.66;;;-145.42;100.00
49367;BME280;35245;52.026;8.540;2024-02-21T06:12:22;51829.44;;;-145.42;100.00
49367;BME280;35245;52.026;8.540;2024-02-21T06:14:49;51835.38;;;-145.42;100.00
49367;BME280;35245;52.026;8.540;2024-02-21T06:17:16;52063.41;;;-145.42;100.00
49367;BME280;35245;52.026;8.540;2024-02-21T06:19:44;52017.78;;;-145.42;100.00
49367;BME280;35245;52.026;8.540;2024-02-21T06:22:11;52075.28;;;-145.42;100.00
49367;BME280;35245;52.026;8.540;2024-02-21T06:24:40;52573.00;;;-145.42;100.00
49367;BME280;35245;52.026;8.540;2024-02-21T06:27:07;51795.72;;;-145.42;100.00
49367;BME280;35245;52.026;8.540;2024-02-21T06:29:34;52432.19;;;-145.42;100.00
49367;BME280;35245;52.026;8.540;2024-02-21T06:32:02;52553.16;;;-145.42;100.00
49367;BME280;35245;52.026;8.540;2024-02-21T06:34:29;52644.38;;;-145.42;100.00
49367;BME280;35245;52.026;8.540;2024-02-21T06:36:56;52406.41;;;-145.42;100.00
49367;BME280;35245;52.026;8.540;2024-02-21T06:39:24;51714.44;;;-145.42;100.00
49367;BME280;35245;52.026;8.540;2024-02-21T06:41:52;52406.41;;;-145.42;100.00
49367;BME280;35245;52.026;8.540;2024-02-21T06:44:21;52666.19;;;-145.42;100.00
49367;BME280;35245;52.026;8.540;2024-02-21T06:46:48;52521.44;;;-145.42;100.00
49367;BME280;35245;52.026;8.540;2024-02-21T06:49:15;52680.06;;;-145.42;100.00
49367;BME280;35245;52.026;8.540;2024-02-21T06:51:43;52652.31;;;-145.42;100.00
49367;BME280;35245;52.026;8.540;2024-02-21T06:54:10;52590.84;;;-145.42;100.00
49367;BME280;35245;52.026;8.540;2024-02-21T06:56:39;52533.31;;;-145.42;100.00
49367;BME280;35245;52.026;8.540;2024-02-21T06:59:07;52567.03;;;-145.42;100.00
49367;BME280;35245;52.026;8.540;2024-02-21T07:01:35;52537.28;;;-145.42;100.00
49367;BME280;35245;52.026;8.540;2024-02-21T07:04:02;52636.44;;;-145.42;100.00
49367;BME280;35245;52.026;8.540;2024-02-21T07:06:29;52600.75;;;-145.42;100.00
49367;BME280;35245;52.026;8.540;2024-02-21T07:08:57;52434.19;;;-145.42;100.00
49367;BME280;35245;52.026;8.540;2024-02-21T07:11:24;52592.81;;;-145.42;100.00
49367;BME280;35245;52.026;8.540;2024-02-21T07:13:52;52537.28;;;-145.42;100.00
49367;BME280;35245;52.026;8.540;2024-02-21T07:16:20;52646.34;;;-145.42;100.00
49367;BME280;35245;52.026;8.540;2024-02-21T07:18:48;52626.53;;;-145.42;100.00
49367;BME280;35245;52.026;8.540;2024-02-21T07:21:15;52473.84;;;-145.42;100.00
49367;BME280;35245;52.026;8.540;2024-02-21T07:23:42;52469.88;;;-145.42;100.00
49367;BME280;35245;52.026;8.540;2024-02-21T07:26:09;52507.56;;;-145.42;100.00
49367;BME280;35245;52.026;8.540;2024-02-21T07:28:36;52471.84;;;-145.42;100.00
49367;BME280;35245;52.026;8.540;2024-02-21T07:31:03;52424.25;;;-145.42;100.00
49367;BME280;35245;52.026;8.540;2024-02-21T07:33:32;52446.06;;;-145.42;100.00
49367;BME280;35245;52.026;8.540;2024-02-21T07:36:01;52463.94;;;-145.42;100.00
49367;BME280;35245;52.026;8.540;2024-02-21T07:38:28;52384.59;;;-145.42;100.00
49367;BME280;35245;52.026;8.540;2024-02-21T07:40:55;52432.19;;;-145.42;100.00
49367;BME280;35245;52.026;8.540;2024-02-21T07:43:22;52436.16;;;-145.42;100.00
49367;BME280;35245;52.026;8.540;2024-02-21T07:45:49;52372.72;;;-145.42;100.00
49367;BME280;35245;52.026;8.540;2024-02-21T07:48:16;52360.81;;;-145.42;100.00
49367;BME280;35245;52.026;8.540;2024-02-21T07:50:46;52277.53;;;-145.42;100.00
49367;BME280;35245;52.026;8.540;2024-02-21T07:53:14;52144.69;;;-145.42;100.00
49367;BME280;35245;52.026;8.540;2024-02-21T07:55:42;52049.50;;;-145.42;100.00
49367;BME280;35245;52.026;8.540;2024-02-21T07:58:09;52204.16;;;-145.42;100.00
49367;BME280;35245;52.026;8.540;2024-02-21T08:00:36;52134.78;;;-145.42;100.00
49367;BME280;35245;52.026;8.540;2024-02-21T08:03:03;52063.41;;;-145.42;100.00
49367;BME280;35245;52.026;8.540;2024-02-21T08:05:30;52007.88;;;-145.42;100.00
49367;BME280;35245;52.026;8.540;2024-02-21T08:08:02;51890.91;;;-145.42;100.00
49367;BME280;35245;52.026;8.540;2024-02-21T08:10:30;52031.66;;;-145.42;100.00
49367;BME280;35245;52.026;8.540;2024-02-21T08:12:57;52105.03;;;-145.42;100.00
49367;BME280;35245;52.026;8.540;2024-02-21T08:15:24;51843.31;;;-145.42;100.00
49367;BME280;35245;52.026;8.540;2024-02-21T08:17:55;52073.31;;;-145.42;100.00
49367;BME280;35245;52.026;8.540;2024-02-21T08:20:25;52136.75;;;-145.42;100.00
49367;BME280;35245;52.026;8.540;2024-02-21T08:22:52;52146.66;;;-145.42;100.00
49367;BME280;35245;52.026;8.540;2024-02-21T08:25:21;51976.16;;;-145.42;100.00
49367;BME280;35245;52.026;8.540;2024-02-21T08:27:48;52152.63;;;-145.42;100.00
49367;BME280;35245;52.026;8.540;2024-02-21T08:30:17;52019.78;;;-145.42;100.00
49367;BME280;35245;52.026;8.540;2024-02-21T08:32:45;52225.97;;;-145.42;100.00
49367;BME280;35245;52.026;8.540;2024-02-21T08:35:12;52073.31;;;-145.42;100.00
49367;BME280;35245;52.026;8.540;2024-02-21T08:37:39;52140.72;;;-145.42;100.00
49367;BME280;35245;52.026;8.540;2024-02-21T08:40:07;52073.31;;;-145.42;100.00
49367;BME280;35245;52.026;8.540;2024-02-21T08:42:36;52045.56;;;-145.42;100.00
49367;BME280;35245;52.026;8.540;2024-02-21T08:45:07;52035.63;;;-145.42;100.00
49367;BME280;35245;52.026;8.540;2024-02-21T08:47:34;51942.44;;;-145.42;100.00
49367;BME280;35245;52.026;8.540;2024-02-21T08:50:02;51994.00;;;-145.42;100.00
49367;BME280;35245;52.026;8.540;2024-02-21T08:52:32;51809.63;;;-145.42;100.00
49367;BME280;35245;52.026;8.540;2024-02-21T08:54:59;51811.59;;;-145.42;100.00
49367;BME280;35245;52.026;8.540;2024-02-21T08:57:27;51884.94;;;-145.42;100.00
49367;BME280;35245;52.026;8.540;2024-02-21T08:59:55;51882.97;;;-145.42;100.00
49367;BME280;35245;52.026;8.540;2024-02-21T09:02:22;52029.69;;;-145.42;100.00
49367;BME280;35245;52.026;8.540;2024-02-21T09:04:49;51758.06;;;-145.42;100.00
49367;BME280;35245;52.026;8.540;2024-02-21T09:07:16;51662.91;;;-145.42;100.00
49367;BME280;35245;52.026;8.540;2024-02-21T09:09:44;51617.31;;;-145.42;100.00
49367;BME280;35245;52.026;8.540;2024-02-21T09:12:11;51645.06;;;-145.42;100.00
49367;BME280;35245;52.026;8.540;2024-02-21T09:14:41;51676.78;;;-145.42;100.00
49367;BME280;35245;52.026;8.540;2024-02-21T09:17:09;51831.41;;;-145.42;100.00
49367;BME280;35245;52.026;8.540;2024-02-21T09:19:36;51884.94;;;-145.42;100.00
49367;BME280;35245;52.026;8.540;2024-02-21T09:22:04;51748.16;;;-145.42;100.00
49367;BME280;35245;52.026;8.540;2024-02-21T09:24:31;51492.41;;;-145.42;100.00
49367;BME280;35245;52.026;8.540;2024-02-21T09:26:58;51603.44;;;-145.42;100.00
49367;BME280;35245;52.026;8.540;2024-02-21T09:29:25;51486.47;;;-145.42;100.00
49367;BME280;35245;52.026;8.540;2024-02-21T09:31:52;51417.06;;;-145.42;100.00
49367;BME280;35245;52.026;8.540;2024-02-21T09:34:21;51415.09;;;-145.42;100.00
49367;BME280;35245;52.026;8.540;2024-02-21T09:36:48;51417.06;;;-145.42;100.00
49367;BME280;35245;52.026;8.540;2024-02-21T09:39:15;51488.44;;;-145.42;100.00
49367;BME280;35245;52.026;8.540;2024-02-21T09:41:48;51436.91;;;-145.42;100.00
49367;BME280;35245;52.026;8.540;2024-02-21T09:44:19;51381.41;;;-145.42;100.00
49367;BME280;35245;52.026;8.540;2024-02-21T09:46:56;51407.16;;;-145.42;100.00
49367;BME280;35245;52.026;8.540;2024-02-21T09:49:30;51224.78;;;-145.42;100.00
49367;BME280;35245;52.026;8.540;2024-02-21T09:52:00;51238.66;;;-145.42;100.00
49367;BME280;35245;52.026;8.540;2024-02-21T09:54:29;51177.22;;;-145.42;100.00
49367;BME280;35245;52.026;8.540;2024-02-21T09:56:57;51222.81;;;-145.42;100.00
49367;BME280;35245;52.026;8.540;2024-02-21T09:59:24;51238.66;;;-145.42;100.00
49367;BME280;35245;52.026;8.540;2024-02-21T10:01:51;51264.44;;;-145.42;100.00
49367;BME280;35245;52.026;8.540;2024-02-21T10:04:19;51292.19;;;-145.42;100.00
49367;BME280;35245;52.026;8.540;2024-02-21T10:06:48;51292.19;;;-145.42;100.00
49367;BME280;35245;52.026;8.540;2024-02-21T10:09:22;51254.53;;;-145.42;100.00
49367;BME280;35245;52.026;8.540;2024-02-21T10:11:50;51274.34;;;-145.42;100.00
49367;BME280;35245;52.026;8.540;2024-02-21T10:14:17;51234.69;;;-145.42;100.00
49367;BME280;35245;52.026;8.540;2024-02-21T10:16:46;51204.97;;;-145.42;100.00
49367;BME280;35245;52.026;8.540;2024-02-21T10:19:18;51210.91;;;-145.42;100.00
49367;BME280;35245;52.026;8.540;2024-02-21T10:22:03;51197.03;;;-145.42;100.00
49367;BME280;35245;52.026;8.540;2024-02-21T10:24:31;51208.94;;;-145.42;100.00
49367;BME280;35245;52.026;8.540;2024-02-21T10:27:01;51204.97;;;-145.42;100.00
49367;BME280;35245;52.026;8.540;2024-02-21T10:29:29;51155.41;;;-145.42;100.00
49367;BME280;35245;52.026;8.540;2024-02-21T10:32:08;51101.88;;;-145.42;100.00
49367;BME280;35245;52.026;8.540;2024-02-21T10:34:36;51113.78;;;-145.42;100.00
49367;BME280;35245;52.026;8.540;2024-02-21T10:37:06;51127.66;;;-145.42;100.00
49367;BME280;35245;52.026;8.540;2024-02-21T10:39:36;51189.09;;;-145.42;100.00
49367;BME280;35245;52.026;8.540;2024-02-21T10:42:04;51165.31;;;-145.42;100.00
49367;BME280;35245;52.026;8.540;2024-02-21T10:44:35;51117.75;;;-145.42;100.00
49367;BME280;35245;52.026;8.540;2024-02-21T10:47:04;51133.59;;;-145.42;100.00
49367;BME280;35245;52.026;8.540;2024-02-21T10:49:39;51137.56;;;-145.42;100.00
49367;BME280;35245;52.026;8.540;2024-02-21T10:52:14;51080.09;;;-145.42;100.00
49367;BME280;35245;52.026;8.540;2024-02-21T10:54:47;51113.78;;;-145.42;100.00
49367;BME280;35245;52.026;8.540;2024-02-21T10:57:19;51127.66;;;-145.42;100.00
49367;BME280;35245;52.026;8.540;2024-02-21T10:59:48;51129.63;;;-145.42;100.00
49367;BME280;35245;52.026;8.540;2024-02-21T11:02:15;51143.50;;;-145.42;100.00
49367;BME280;35245;52.026;8.540;2024-02-21T11:04:43;51220.81;;;-145.42;100.00
49367;BME280;35245;52.026;8.540;2024-02-21T11:07:13;51206.94;;;-145.42;100.00
49367;BME280;35245;52.026;8.540;2024-02-21T11:09:50;51195.06;;;-145.42;100.00
49367;BME280;35245;52.026;8.540;2024-02-21T11:12:20;51181.19;;;-145.42;100.00
49367;BME280;35245;52.026;8.540;2024-02-21T11:14:48;51099.91;;;-145.42;100.00
49367;BME280;35245;52.026;8.540;2024-02-21T11:17:15;51153.44;;;-145.42;100.00
49367;BME280;35245;52.026;8.540;2024-02-21T11:19:43;51167.31;;;-145.42;100.00
49367;BME280;35245;52.026;8.540;2024-02-21T11:22:16;51250.56;;;-145.42;100.00
49367;BME280;35245;52.026;8.540;2024-02-21T11:24:44;51284.25;;;-145.42;100.00
49367;BME280;35245;52.026;8.540;2024-02-21T11:27:14;51359.59;;;-145.42;100.00
49367;BME280;35245;52.026;8.540;2024-02-21T11:29:43;51486.47;;;-145.42;100.00
49367;BME280;35245;52.026;8.540;2024-02-21T11:32:11;51389.31;;;-145.42;100.00
49367;BME280;35245;52.026;8.540;2024-02-21T11:34:38;51310.03;;;-145.42;100.00
49367;BME280;35245;52.026;8.540;2024-02-21T11:37:15;51302.09;;;-145.42;100.00
49367;BME280;35245;52.026;8.540;2024-02-21T11:39:42;51288.22;;;-145.42;100.00
49367;BME280;35245;52.026;8.540;2024-02-21T11:42:10;51314.00;;;-145.42;100.00
49367;BME280;35245;52.026;8.540;2024-02-21T11:44:38;51248.56;;;-145.42;100.00
49367;BME280;35245;52.026;8.540;2024-02-21T11:47:07;51218.84;;;-145.42;100.00
49367;BME280;35245;52.026;8.540;2024-02-21T11:49:37;51319.94;;;-145.42;100.00
49367;BME280;35245;52.026;8.540;2024-02-21T11:52:06;51319.94;;;-145.42;100.00
49367;BME280;35245;52.026;8.540;2024-02-21T11:54:35;51276.31;;;-145.42;100.00
49367;BME280;35245;52.026;8.540;2024-02-21T11:57:02;51206.94;;;-145.42;100.00
49367;BME280;35245;52.026;8.540;2024-02-21T11:59:30;51357.59;;;-145.42;100.00
49367;BME280;35245;52.026;8.540;2024-02-21T12:01:59;51286.25;;;-145.42;100.00
49367;BME280;35245;52.026;8.540;2024-02-21T12:04:26;51272.38;;;-145.42;100.00
49367;BME280;35245;52.026;8.540;2024-02-21T12:06:54;51238.66;;;-145.42;100.00
49367;BME280;35245;52.026;8.540;2024-02-21T12:09:23;51276.31;;;-145.42;100.00
49367;BME280;35245;52.026;8.540;2024-02-21T12:11:59;51250.56;;;-145.42;100.00
49367;BME280;35245;52.026;8.540;2024-02-21T12:14:28;51230.75;;;-145.42;100.00
49367;BME280;35245;52.026;8.540;2024-02-21T12:16:55;51290.22;;;-145.42;100.00
49367;BME280;35245;52.026;8.540;2024-02-21T12:19:23;51266.41;;;-145.42;100.00
49367;BME280;35245;52.026;8.540;2024-02-21T12:21:50;51280.28;;;-145.42;100.00
49367;BME280;35245;52.026;8.540;2024-02-21T12:24:21;51290.22;;;-145.42;100.00
49367;BME280;35245;52.026;8.540;2024-02-21T12:26:49;51204.97;;;-145.42;100.00
49367;BME280;35245;52.026;8.540;2024-02-21T12:29:17;51389.31;;;-145.42;100.00
49367;BME280;35245;52.026;8.540;2024-02-21T12:31:44;51365.53;;;-145.42;100.00
49367;BME280;35245;52.026;8.540;2024-02-21T12:34:11;51417.06;;;-145.42;100.00